Airfield :
LOGIN :

Register | Disclaimer

   EN    FR    IT 

 










Legend :    VFR   Marginal VFR   IFR   Intensive IFR   Very Intensive IFR
Visi :
Ceiling :
>= 8 km
>= 3000ft
5 to 8 km
1000 to 3000 ft
1500m to 5 km
500 to 1000 ft
800 to 1500m
200 to 500 ft
< 800m
< 200 ft
Symbols :   Thunderstorms  Fog  Heavy snow  Heavy precipitations  Wind > 20 kt
SIGMETs :     Misc.  Thunderstorms  Icing  Turbulence  Mountain Waves  Volcanic Ashes






- Airport Elevation : 74 ft
- IATA code : EIN


EHEH - Eindhoven

CURRENT METAR :
  • 181609Z AUTO 23011KT 9999 SCT014 BKN016 OVC043 06/04 Q1020 GRN TEMPO SCT012 BKN015

EXPIRED METARs :
  • 181555Z AUTO 22014KT 200V260 9999 FEW020 SCT024 BKN029 06/04 Q1020 WHT TEMPO SCT012 BKN015
  • 181526Z AUTO 22012KT 190V250 9999 FEW019 SCT026 BKN035 06/04 Q1020 BLU TEMPO SCT012 BKN015
  • 181525Z AUTO 23012KT 190V260 9999 SCT018 BKN025 BKN029 06/04 Q1020 REDZ WHT TEMPO SCT012 BKN015
  • 181455Z AUTO 23011KT 200V270 9999 -DZ FEW014 BKN017 BKN021 06/04 Q1020 REDZ WHT TEMPO SCT012 BKN015
  • 181425Z AUTO 23011KT 200V260 9999 SCT015 OVC018 06/04 Q1021 WHT TEMPO SCT012 BKN015
  • 181355Z AUTO 22013KT 200V260 9999 BKN018 BKN021 OVC045 06/03 Q1021 WHT TEMPO SCT012 BKN015
  • 181348Z AUTO 22013KT 9999 SCT018 BKN021 BKN025 06/03 Q1021 WHT TEMPO SCT012 BKN015
  • 181341Z AUTO 22013KT 200V260 9999 FEW020 SCT024 BKN029 06/03 Q1021 WHT TEMPO SCT012 BKN015
  • 181329Z AUTO 23012KT 200V260 9999 FEW015 SCT026 BKN030 06/03 Q1021 BLU TEMPO SCT012 BKN015

TAF TAF EHEH
Valid from the 18 at 12:00 until the 19 at 18:00 UTC


181140Z 1812/1918 24011KT CAVOK
TEMPO 1812/1816 24011G22KT
TEMPO 1812/1814 SCT014
PROB40
TEMPO 1814/1822 SCT015
BECMG 1822/1824 21015G25KT SCT012 BKN015
TEMPO 1900/1914 4000 RA RADZ SCT005 BKN010
PROB30
TEMPO 1910/1912 2500 DZRA SCT003 BKN005
TEMPO 1905/1914 23020G32KT
TEMPO 1912/1916 SCT008 BKN012



MET'MAP, your aeronautical weather chart ! - Copyright ORBIFLY December 2007 - Disclaimer

ORBIFLY MET'MAP TEAM :

Programming & Development : Alexandra Zaïnal
Concept & original design : Baudouin d'Aumeries
Assistance for programming : Marc-Olivier Méhu
Technical & hardware support : Manuel Goepfert

Contact : metmap@orbifly.com




SOURCES & CREDITS :

   NOAA